createdAt,value
2019-04-07T00:00:54.552Z,99702.27
2019-04-07T00:03:21.590Z,99700.56
2019-04-07T00:05:48.522Z,99699.91
2019-04-07T00:08:15.445Z,99707.47
2019-04-07T00:10:42.502Z,99703.53
2019-04-07T00:13:10.047Z,99705.17
2019-04-07T00:15:37.767Z,99700.36
2019-04-07T00:18:05.010Z,99707.91
2019-04-07T00:20:32.154Z,99697.45
2019-04-07T00:22:59.092Z,99703.37
2019-04-07T00:25:25.984Z,99701.15
2019-04-07T00:27:52.922Z,99705.19
2019-04-07T00:30:19.854Z,99707.88
2019-04-07T00:32:46.830Z,99707.62
2019-04-07T00:35:23.232Z,99704.03
2019-04-07T00:37:42.779Z,99703.18
2019-04-07T00:40:09.834Z,99705.06
2019-04-07T00:42:36.789Z,99705.06
2019-04-07T00:45:04.174Z,99707.90
2019-04-07T00:47:31.198Z,99710.12
2019-04-07T00:49:58.731Z,99709.16
2019-04-07T00:52:25.683Z,99708.16
2019-04-07T00:54:52.592Z,99706.33
2019-04-07T00:57:19.868Z,99706.54
2019-04-07T00:59:47.314Z,99703.54
2019-04-07T01:02:14.436Z,99704.15
2019-04-07T01:04:41.887Z,99703.48
2019-04-07T01:07:09.158Z,99704.97
2019-04-07T01:09:36.049Z,99704.79
2019-04-07T01:12:03.073Z,99703.70
2019-04-07T01:14:29.979Z,99696.85
2019-04-07T01:16:57.153Z,99699.79
2019-04-07T01:19:24.378Z,99704.48
2019-04-07T01:21:51.497Z,99702.52
2019-04-07T01:24:18.717Z,99707.88
2019-04-07T01:26:45.737Z,99697.68
2019-04-07T01:29:12.642Z,99706.81
2019-04-07T01:31:39.604Z,99702.16
2019-04-07T01:34:06.581Z,99714.28
2019-04-07T01:36:33.804Z,99712.52
2019-04-07T01:39:00.852Z,99713.83
2019-04-07T01:41:39.498Z,99713.09
2019-04-07T01:44:12.150Z,99712.55
2019-04-07T01:46:58.827Z,99718.47
2019-04-07T01:49:33.842Z,99710.70
2019-04-07T01:52:18.352Z,99713.48
2019-04-07T01:55:01.595Z,99713.77
2019-04-07T01:57:42.898Z,99710.45
2019-04-07T02:00:20.497Z,99706.33
2019-04-07T02:03:03.362Z,99702.95
2019-04-07T02:05:58.430Z,99700.84
2019-04-07T02:08:30.862Z,99700.55
2019-04-07T02:11:14.582Z,99708.34
2019-04-07T02:13:59.299Z,99706.46
2019-04-07T02:16:45.196Z,99707.05
2019-04-07T02:19:38.013Z,99702.39
2019-04-07T02:22:16.262Z,99709.16
2019-04-07T02:25:14.752Z,99706.75
2019-04-07T02:27:54.561Z,99710.77
2019-04-07T02:30:35.548Z,99704.25
2019-04-07T02:33:31.062Z,99706.98
2019-04-07T02:36:25.531Z,99708.84
2019-04-07T02:39:05.747Z,99712.09
2019-04-07T02:41:52.291Z,99709.66
2019-04-07T02:44:41.909Z,99718.72
2019-04-07T02:47:24.623Z,99704.94
2019-04-07T02:50:14.166Z,99714.12
2019-04-07T02:52:53.250Z,99706.23
2019-04-07T02:55:42.306Z,99707.54
2019-04-07T03:01:06.963Z,99716.66
2019-04-07T03:03:41.123Z,99718.30
2019-04-07T03:06:37.281Z,99722.18
2019-04-07T03:09:03.530Z,99714.71
2019-04-07T03:11:47.748Z,99716.95
2019-04-07T03:14:34.518Z,99709.33
2019-04-07T03:17:08.536Z,99714.78
2019-04-07T03:19:42.668Z,99716.84
2019-04-07T03:22:28.981Z,99718.35
2019-04-07T03:25:09.914Z,99715.66
2019-04-07T03:28:02.867Z,99713.23
2019-04-07T03:30:49.182Z,99720.47
2019-04-07T03:33:25.988Z,99721.53
2019-04-07T03:36:02.901Z,99715.38
2019-04-07T03:38:39.356Z,99721.59
2019-04-07T03:41:15.046Z,99719.02
2019-04-07T03:44:01.659Z,99720.05
2019-04-07T03:47:07.149Z,99720.56
2019-04-07T03:50:07.170Z,99719.02
2019-04-07T03:52:52.295Z,99718.72
2019-04-07T03:55:33.912Z,99721.92
2019-04-07T03:58:19.583Z,99722.41
2019-04-07T04:01:10.196Z,99723.62
2019-04-07T04:03:43.964Z,99721.02
2019-04-07T04:06:24.722Z,99722.71
2019-04-07T04:09:06.786Z,99724.31
2019-04-07T04:11:50.107Z,99723.95
2019-04-07T04:14:21.963Z,99731.72
2019-04-07T04:16:51.044Z,99725.09
2019-04-07T04:19:18.813Z,99718.66
2019-04-07T04:21:45.987Z,99727.00
2019-04-07T04:24:13.059Z,99727.00
2019-04-07T04:26:40.050Z,99727.91
2019-04-07T04:29:08.240Z,99727.48
2019-04-07T04:31:35.804Z,99727.48
2019-04-07T04:34:03.348Z,99729.38
2019-04-07T04:36:31.411Z,99739.04
2019-04-07T04:38:59.110Z,99735.91
2019-04-07T04:41:27.283Z,99737.51
2019-04-07T04:43:56.609Z,99739.40
2019-04-07T04:46:23.872Z,99736.13
2019-04-07T04:48:51.696Z,99743.22
2019-04-07T04:51:19.735Z,99744.70
2019-04-07T04:53:47.586Z,99744.31
2019-04-07T04:56:14.838Z,99747.52
2019-04-07T04:58:42.449Z,99742.53
2019-04-07T05:01:09.688Z,99759.30
2019-04-07T05:03:36.682Z,99754.84
2019-04-07T05:06:03.926Z,99756.41
2019-04-07T05:08:31.159Z,99753.31
2019-04-07T05:10:58.823Z,99764.55
2019-04-07T05:13:26.001Z,99765.95
2019-04-07T05:15:53.719Z,99768.55
2019-04-07T05:18:21.101Z,99771.16
2019-04-07T05:20:48.719Z,99767.86
2019-04-07T05:23:16.226Z,99776.78
2019-04-07T05:25:43.803Z,99783.62
2019-04-07T05:28:11.319Z,99783.84
2019-04-07T05:30:39.076Z,99787.53
2019-04-07T05:33:06.257Z,99786.22
2019-04-07T05:35:34.124Z,99783.27
2019-04-07T05:38:04.023Z,99784.09
2019-04-07T05:40:29.981Z,99788.84
2019-04-07T05:42:56.973Z,99792.20
2019-04-07T05:45:23.915Z,99793.11
2019-04-07T05:47:52.498Z,99789.05
2019-04-07T05:50:20.101Z,99791.41
2019-04-07T05:52:47.651Z,99797.64
2019-04-07T05:55:15.226Z,99796.58
2019-04-07T05:57:42.289Z,99795.08
2019-04-07T06:00:15.687Z,99799.67
2019-04-07T06:02:40.822Z,99801.22
2019-04-07T06:05:07.827Z,99801.70
2019-04-07T06:07:35.929Z,99806.08
2019-04-07T06:10:04.374Z,99806.48
2019-04-07T06:12:31.640Z,99810.36
2019-04-07T06:14:58.641Z,99809.41
2019-04-07T06:17:26.307Z,99816.63
2019-04-07T06:19:54.468Z,99810.50
2019-04-07T06:22:22.001Z,99815.45
2019-04-07T06:24:50.250Z,99813.93
2019-04-07T06:27:18.117Z,99821.67
2019-04-07T06:29:45.804Z,99816.77
2019-04-07T06:32:12.799Z,99824.77
2019-04-07T06:34:41.841Z,99824.20
2019-04-07T06:37:08.691Z,99823.95
2019-04-07T06:39:36.157Z,99826.05
2019-04-07T06:42:03.516Z,99830.67
2019-04-07T06:44:30.672Z,99834.45
2019-04-07T06:47:18.006Z,99834.45
2019-04-07T06:50:01.860Z,99838.32
2019-04-07T06:52:42.182Z,99831.56
2019-04-07T06:55:32.706Z,99833.92
2019-04-07T06:58:08.061Z,99832.44
2019-04-07T07:01:04.629Z,99844.56
2019-04-07T07:03:54.588Z,99848.41
2019-04-07T07:06:34.128Z,99842.72
2019-04-07T07:09:27.852Z,99845.20
2019-04-07T07:12:18.668Z,99846.38
2019-04-07T07:15:05.889Z,99851.84
2019-04-07T07:17:38.129Z,99853.63
2019-04-07T07:20:38.200Z,99854.64
2019-04-07T07:23:14.102Z,99854.06
2019-04-07T07:25:38.943Z,99857.78
2019-04-07T07:28:07.581Z,99856.03
2019-04-07T07:30:34.982Z,99851.89
2019-04-07T07:33:01.994Z,99859.86
2019-04-07T07:35:28.966Z,99859.99
2019-04-07T07:37:59.450Z,99856.11
2019-04-07T07:40:25.579Z,99855.74
2019-04-07T07:42:56.065Z,99847.87
2019-04-07T07:45:21.770Z,99851.67
2019-04-07T07:47:53.224Z,99853.16
2019-04-07T07:50:17.912Z,99853.25
2019-04-07T07:52:47.298Z,99853.33
2019-04-07T07:55:14.262Z,99850.36
2019-04-07T07:57:41.265Z,99851.12
2019-04-07T08:00:10.311Z,99852.77
2019-04-07T08:02:38.958Z,99850.94
2019-04-07T08:05:06.127Z,99849.94
2019-04-07T08:07:33.599Z,99853.89
2019-04-07T08:10:01.398Z,99861.36
2019-04-07T08:12:32.368Z,99859.28
2019-04-07T08:14:58.604Z,99858.73
2019-04-07T08:17:25.969Z,99862.21
2019-04-07T08:19:52.955Z,99858.37
2019-04-07T08:22:28.890Z,99857.89
2019-04-07T08:24:51.131Z,99862.70
2019-04-07T08:27:17.849Z,99866.41
2019-04-07T08:29:45.212Z,99860.45
2019-04-07T08:32:12.333Z,99866.39
2019-04-07T08:34:39.284Z,99867.80
2019-04-07T08:37:06.280Z,99870.77
2019-04-07T08:39:35.796Z,99868.48
2019-04-07T08:42:04.724Z,99864.60
2019-04-07T08:44:32.327Z,99864.66
2019-04-07T08:46:59.304Z,99867.47
2019-04-07T08:49:26.271Z,99860.76
2019-04-07T08:51:54.908Z,99871.45
2019-04-07T08:54:22.002Z,99863.25
2019-04-07T08:56:48.981Z,99853.48
2019-04-07T08:59:17.157Z,99863.42
2019-04-07T09:01:44.690Z,99853.73
2019-04-07T09:04:15.078Z,99852.80
2019-04-07T09:06:40.917Z,99860.41
2019-04-07T09:09:08.096Z,99856.39
2019-04-07T09:11:35.126Z,99852.27
2019-04-07T09:14:05.938Z,99859.09
2019-04-07T09:16:58.113Z,99855.84
2019-04-07T09:19:53.788Z,99862.46
2019-04-07T09:22:31.611Z,99854.27
2019-04-07T09:25:27.329Z,99856.35
2019-04-07T09:28:14.296Z,99857.87
2019-04-07T09:31:02.160Z,99853.33
2019-04-07T09:33:38.854Z,99862.73
2019-04-07T09:36:23.385Z,99866.55
2019-04-07T09:39:00.185Z,99859.52
2019-04-07T09:41:32.557Z,99857.70
2019-04-07T09:44:23.700Z,99860.84
2019-04-07T09:47:19.628Z,99864.34
2019-04-07T09:50:06.677Z,99859.79
2019-04-07T09:52:52.196Z,99859.03
2019-04-07T09:55:58.017Z,99860.06
2019-04-07T09:58:53.479Z,99865.14
2019-04-07T10:01:35.352Z,99860.23
2019-04-07T10:04:20.971Z,99865.19
2019-04-07T10:07:22.998Z,99865.66
2019-04-07T10:10:12.509Z,99856.47
2019-04-07T10:12:52.568Z,99869.02
2019-04-07T10:15:42.073Z,99865.14
2019-04-07T10:18:29.653Z,99864.79
2019-04-07T10:21:07.023Z,99858.33
2019-04-07T10:23:49.433Z,99858.16
2019-04-07T10:26:23.262Z,99860.81
2019-04-07T10:28:55.964Z,99859.44
2019-04-07T10:34:54.345Z,99855.89
2019-04-07T10:37:37.883Z,99848.73
2019-04-07T10:40:23.369Z,99853.49
2019-04-07T10:43:13.658Z,99848.91
2019-04-07T10:45:56.010Z,99855.92
2019-04-07T10:48:43.440Z,99845.38
2019-04-07T10:51:35.346Z,99852.70
2019-04-07T10:54:19.939Z,99855.53
2019-04-07T10:57:05.410Z,99851.76
2019-04-07T10:59:42.966Z,99852.75
2019-04-07T11:02:29.563Z,99853.91
2019-04-07T11:05:34.340Z,99851.78
2019-04-07T11:08:33.090Z,99852.47
2019-04-07T11:11:26.666Z,99848.63
2019-04-07T11:14:20.069Z,99851.77
2019-04-07T11:17:10.035Z,99798.59
2019-04-07T11:20:13.224Z,99840.50
2019-04-07T11:22:58.717Z,99845.19
2019-04-07T11:25:34.718Z,99842.91
2019-04-07T11:28:14.812Z,99844.89
2019-04-07T11:30:49.694Z,99842.98
2019-04-07T11:33:24.964Z,99846.30
2019-04-07T11:36:18.600Z,99843.02
2019-04-07T11:38:51.638Z,99835.41
2019-04-07T11:41:37.235Z,99851.19
2019-04-07T11:44:13.855Z,99847.73
2019-04-07T11:46:49.328Z,99842.78
2019-04-07T11:49:25.113Z,99843.73
2019-04-07T11:52:00.212Z,99842.62
2019-04-07T11:54:32.655Z,99839.33
2019-04-07T11:57:25.906Z,99848.56
2019-04-07T12:00:16.040Z,99845.06
2019-04-07T12:03:02.877Z,99849.89
2019-04-07T12:05:48.387Z,99850.48
2019-04-07T12:08:36.228Z,99854.36
2019-04-07T12:11:14.880Z,99851.12
2019-04-07T12:14:02.242Z,99850.55
2019-04-07T12:16:37.021Z,99853.11
2019-04-07T12:19:11.302Z,99851.38
2019-04-07T12:21:49.585Z,99849.44
2019-04-07T12:24:34.816Z,99848.39
2019-04-07T12:27:17.270Z,99851.36
2019-04-07T12:30:04.363Z,99846.29
2019-04-07T12:32:37.751Z,99837.78
2019-04-07T12:35:36.599Z,99840.23
2019-04-07T12:38:28.849Z,99844.05
2019-04-07T12:41:24.701Z,99839.91
2019-04-07T12:44:10.446Z,99842.31
2019-04-07T12:46:55.797Z,99841.17
2019-04-07T12:49:46.197Z,99842.30
2019-04-07T12:52:39.512Z,99839.23
2019-04-07T12:55:32.667Z,99839.05
2019-04-07T12:58:11.752Z,99830.95
2019-04-07T13:00:57.847Z,99827.09
2019-04-07T13:03:37.463Z,99822.40
2019-04-07T13:06:33.321Z,99834.77
2019-04-07T13:09:19.410Z,99822.34
2019-04-07T13:12:06.188Z,99816.80
2019-04-07T13:14:44.001Z,99818.97
2019-04-07T13:17:28.071Z,99816.39
2019-04-07T13:20:12.998Z,99822.95
2019-04-07T13:22:48.931Z,99823.20
2019-04-07T13:25:45.323Z,99816.24
2019-04-07T13:28:28.383Z,99820.06
2019-04-07T13:31:02.976Z,99814.52
2019-04-07T13:33:45.795Z,99816.73
2019-04-07T13:36:29.155Z,99812.33
2019-04-07T13:39:02.015Z,99811.09
2019-04-07T13:41:56.401Z,99809.14
2019-04-07T13:44:44.781Z,99806.09
2019-04-07T13:47:27.630Z,99810.99
2019-04-07T13:50:30.004Z,99816.38
2019-04-07T13:53:06.699Z,99814.72
2019-04-07T13:55:55.241Z,99801.08
2019-04-07T13:58:35.748Z,99808.22
2019-04-07T14:01:13.832Z,99805.86
2019-04-07T14:03:58.944Z,99804.59
2019-04-07T14:06:46.782Z,99807.36
2019-04-07T14:09:42.563Z,99808.56
2019-04-07T14:12:47.887Z,99806.39
2019-04-07T14:15:24.754Z,99797.86
2019-04-07T14:18:23.365Z,99805.47
2019-04-07T14:21:10.443Z,99802.85
2019-04-07T14:23:57.281Z,99804.80
2019-04-07T14:26:47.771Z,99802.92
2019-04-07T14:29:34.867Z,99802.84
2019-04-07T14:32:20.905Z,99791.56
2019-04-07T14:35:10.494Z,99794.05
2019-04-07T14:37:47.282Z,99805.00
2019-04-07T14:40:40.931Z,99807.66
2019-04-07T14:43:25.808Z,99804.59
2019-04-07T14:46:10.495Z,99804.77
2019-04-07T14:48:57.082Z,99807.28
2019-04-07T14:51:43.667Z,99801.34
2019-04-07T14:54:39.701Z,99800.09
2019-04-07T14:57:17.018Z,99815.16
2019-04-07T14:59:55.162Z,99798.79
2019-04-07T15:02:22.957Z,99798.88
2019-04-07T15:04:57.043Z,99806.62
2019-04-07T15:07:41.908Z,99813.91
2019-04-07T15:10:15.386Z,99809.34
2019-04-07T15:12:44.585Z,99800.66
2019-04-07T15:15:11.931Z,99801.94
2019-04-07T15:17:39.365Z,99802.61
2019-04-07T15:20:07.425Z,99804.92
2019-04-07T15:22:34.665Z,99807.33
2019-04-07T15:25:01.744Z,99802.10
2019-04-07T15:27:28.731Z,99808.61
2019-04-07T15:29:56.631Z,99813.66
2019-04-07T15:32:26.636Z,99815.47
2019-04-07T15:35:15.001Z,99812.17
2019-04-07T15:37:42.592Z,99816.56
2019-04-07T15:40:10.906Z,99807.94
2019-04-07T15:42:43.349Z,99808.34
2019-04-07T15:45:10.556Z,99808.94
2019-04-07T15:47:36.328Z,99805.70
2019-04-07T15:50:03.883Z,99805.44
2019-04-07T15:52:31.977Z,99804.11
2019-04-07T15:54:59.564Z,99808.84
2019-04-07T15:57:26.731Z,99807.58
2019-04-07T15:59:54.133Z,99819.16
2019-04-07T16:02:21.239Z,99815.51
2019-04-07T16:04:49.229Z,99816.90
2019-04-07T16:07:18.356Z,99821.41
2019-04-07T16:09:52.561Z,99818.13
2019-04-07T16:12:14.502Z,99825.10
2019-04-07T16:14:44.930Z,99822.37
2019-04-07T16:17:11.235Z,99824.96
2019-04-07T16:19:43.783Z,99828.88
2019-04-07T16:22:11.202Z,99832.38
2019-04-07T16:24:37.278Z,99830.47
2019-04-07T16:27:06.705Z,99827.90
2019-04-07T16:29:33.768Z,99827.20
2019-04-07T16:32:01.921Z,99833.73
2019-04-07T16:34:29.146Z,99831.94
2019-04-07T16:36:58.219Z,99832.89
2019-04-07T16:39:25.049Z,99837.97
2019-04-07T16:41:52.055Z,99838.67
2019-04-07T16:44:19.088Z,99840.75
2019-04-07T16:46:46.296Z,99840.63
2019-04-07T16:49:14.015Z,99847.09
2019-04-07T16:51:42.753Z,99843.47
2019-04-07T16:54:10.412Z,99847.80
2019-04-07T16:56:39.167Z,99846.09
2019-04-07T16:59:09.676Z,99849.47
2019-04-07T17:01:36.712Z,99854.53
2019-04-07T17:04:03.847Z,99856.33
2019-04-07T17:06:34.706Z,99862.83
2019-04-07T17:09:00.456Z,99862.68
2019-04-07T17:11:27.473Z,99867.24
2019-04-07T17:13:54.506Z,99860.97
2019-04-07T17:16:23.905Z,99853.38
2019-04-07T17:18:53.485Z,99863.84
2019-04-07T17:21:20.485Z,99866.47
2019-04-07T17:23:47.721Z,99865.63
2019-04-07T17:26:14.900Z,99866.38
2019-04-07T17:28:44.649Z,99872.58
2019-04-07T17:31:11.768Z,99866.14
2019-04-07T17:33:39.377Z,99872.34
2019-04-07T17:36:06.649Z,99879.80
2019-04-07T17:38:39.272Z,99876.75
2019-04-07T17:41:08.873Z,99878.69
2019-04-07T17:43:58.992Z,99884.16
2019-04-07T17:46:58.482Z,99881.45
2019-04-07T17:49:50.395Z,99884.63
2019-04-07T17:52:27.034Z,99886.16
2019-04-07T17:55:19.470Z,99898.84
2019-04-07T17:57:57.591Z,99897.46
2019-04-07T18:00:41.389Z,99896.56
2019-04-07T18:03:31.382Z,99901.52
2019-04-07T18:06:31.030Z,99903.39
2019-04-07T18:09:19.694Z,99910.22
2019-04-07T18:12:09.622Z,99910.67
2019-04-07T18:14:56.952Z,99916.41
2019-04-07T18:17:31.309Z,99918.88
2019-04-07T18:20:18.074Z,99924.30
2019-04-07T18:23:05.429Z,99917.19
2019-04-07T18:25:45.811Z,99925.18
2019-04-07T18:28:23.835Z,99930.02
2019-04-07T18:31:15.334Z,99932.41
2019-04-07T18:34:10.930Z,99934.09
2019-04-07T18:37:09.731Z,99934.59
2019-04-07T18:40:04.691Z,99942.28
2019-04-07T18:42:45.631Z,99946.61
2019-04-07T18:45:31.929Z,99948.69
2019-04-07T18:48:26.516Z,99951.22
2019-04-07T18:51:27.781Z,99954.06
2019-04-07T18:54:10.783Z,99957.06
2019-04-07T18:56:54.825Z,99958.78
2019-04-07T19:00:04.365Z,99946.60
2019-04-07T19:02:53.872Z,99960.74
2019-04-07T19:05:40.657Z,99966.67
2019-04-07T19:08:20.266Z,99971.41
2019-04-07T19:11:26.320Z,99969.44
2019-04-07T19:14:33.442Z,99970.36
2019-04-07T19:17:07.078Z,99977.56
2019-04-07T19:19:52.596Z,99975.88
2019-04-07T19:22:38.685Z,99981.53
2019-04-07T19:25:21.465Z,99980.63
2019-04-07T19:28:07.885Z,99982.41
2019-04-07T19:30:46.134Z,99990.73
2019-04-07T19:33:29.497Z,99985.35
2019-04-07T19:36:17.508Z,99990.28
2019-04-07T19:38:52.368Z,99986.23
2019-04-07T19:41:38.264Z,99988.98
2019-04-07T19:44:17.986Z,99989.72
2019-04-07T19:46:53.379Z,99993.70
2019-04-07T19:49:43.152Z,99996.16
2019-04-07T19:52:39.793Z,99992.87
2019-04-07T19:55:16.324Z,99988.73
2019-04-07T19:58:17.800Z,99990.05
2019-04-07T20:01:01.598Z,99993.75
2019-04-07T20:03:47.320Z,99991.29
2019-04-07T20:06:44.735Z,99991.55
2019-04-07T20:09:45.389Z,99989.39
2019-04-07T20:12:21.398Z,99998.23
2019-04-07T20:15:12.064Z,99996.00
2019-04-07T20:17:56.598Z,100002.01
2019-04-07T20:20:35.814Z,100000.97
2019-04-07T20:23:23.040Z,100004.62
2019-04-07T20:26:03.613Z,100010.09
2019-04-07T20:28:45.162Z,100011.54
2019-04-07T20:31:22.777Z,100008.91
2019-04-07T20:34:08.146Z,100012.84
2019-04-07T20:37:00.286Z,100012.23
2019-04-07T20:39:53.222Z,100011.44
2019-04-07T20:42:31.125Z,100011.44
2019-04-07T20:45:22.552Z,100013.97
2019-04-07T20:48:07.869Z,100013.48
2019-04-07T20:50:54.084Z,100012.81
2019-04-07T20:53:43.756Z,100011.42
2019-04-07T20:56:31.435Z,100009.67
2019-04-07T20:59:45.786Z,100010.64
2019-04-07T21:02:23.397Z,100011.33
2019-04-07T21:05:16.698Z,100017.14
2019-04-07T21:07:59.522Z,100014.23
2019-04-07T21:11:06.390Z,100010.85
2019-04-07T21:14:11.389Z,100011.62
2019-04-07T21:16:47.559Z,100009.47
2019-04-07T21:19:36.535Z,100019.53
2019-04-07T21:22:15.684Z,100015.21
2019-04-07T21:24:55.713Z,100017.73
2019-04-07T21:27:36.111Z,100013.37
2019-04-07T21:30:09.638Z,100018.80
2019-04-07T21:32:59.044Z,100017.96
2019-04-07T21:35:48.498Z,100017.07
2019-04-07T21:38:29.686Z,100018.80
2019-04-07T21:41:14.399Z,100028.48
2019-04-07T21:43:58.258Z,100024.23
2019-04-07T21:46:43.408Z,100022.95
2019-04-07T21:49:32.664Z,100015.91
2019-04-07T21:52:26.497Z,100020.64
2019-04-07T21:55:09.844Z,100019.73
2019-04-07T21:57:50.914Z,100030.91
2019-04-07T22:00:33.261Z,100028.65
2019-04-07T22:03:23.941Z,100029.58
2019-04-07T22:06:10.992Z,100029.44
2019-04-07T22:08:45.333Z,100031.75
2019-04-07T22:11:11.327Z,100033.07
2019-04-07T22:13:38.677Z,100036.02
2019-04-07T22:16:05.930Z,100040.32
2019-04-07T22:18:32.948Z,100042.27
2019-04-07T22:20:59.902Z,100036.53
2019-04-07T22:23:29.612Z,100032.42
2019-04-07T22:25:55.959Z,100037.16
2019-04-07T22:28:27.673Z,100040.57
2019-04-07T22:30:53.219Z,100042.02
2019-04-07T22:33:24.233Z,100034.28
2019-04-07T22:35:49.152Z,100037.16
2019-04-07T22:38:17.581Z,100047.14
2019-04-07T22:40:45.781Z,100041.63
2019-04-07T22:43:16.690Z,100043.78
2019-04-07T22:45:52.703Z,100040.89
2019-04-07T22:48:10.672Z,100043.84
2019-04-07T22:50:38.823Z,100056.48
2019-04-07T22:53:07.308Z,100052.45
2019-04-07T22:55:36.050Z,100047.20
2019-04-07T22:58:03.320Z,100051.88
2019-04-07T23:00:30.781Z,100051.38
2019-04-07T23:02:57.987Z,100043.78
2019-04-07T23:05:25.625Z,100045.61
2019-04-07T23:07:53.167Z,100049.69
2019-04-07T23:10:20.180Z,100043.97
2019-04-07T23:12:47.923Z,100043.72
2019-04-07T23:15:14.910Z,100044.47
2019-04-07T23:17:41.900Z,100044.18
2019-04-07T23:20:09.030Z,100043.41
2019-04-07T23:22:36.211Z,100045.14
2019-04-07T23:25:03.658Z,100043.48
2019-04-07T23:27:30.616Z,100046.66
2019-04-07T23:29:57.573Z,100047.48
2019-04-07T23:32:25.460Z,100041.67
2019-04-07T23:34:52.476Z,100043.77
2019-04-07T23:37:19.447Z,100041.95
2019-04-07T23:39:46.391Z,100046.61
2019-04-07T23:42:13.351Z,100041.84
2019-04-07T23:51:39.329Z,100047.39
2019-04-07T23:54:14.996Z,100051.69
2019-04-07T23:56:43.625Z,100048.56
2019-04-07T23:59:11.066Z,100054.14
